Time;durP1;ratioP1;P1;durP2;ratioP2;P2;SDS_P1;SDS_P2;PMS_P1;PMS_P2;Temp;Humidity;BMP_temperature;BMP_pressure;BME280_temperature;BME280_humidity;BME280_pressure;Samples;Min_cycle;Max_cycle;Signal;HPM_P1;HPM_P2
2021/05/21 00:00:22;;;;;;;0.52;0.30;;;23.20;37.90;;;;;;5053663;28;20384;-63
2021/05/21 00:02:48;;;;;;;2.00;0.30;;;23.20;37.80;;;;;;5054313;28;20540;-65
2021/05/21 00:05:15;;;;;;;0.40;0.30;;;23.20;37.80;;;;;;5072448;28;20798;-63
2021/05/21 00:07:40;;;;;;;0.60;0.30;;;23.20;37.80;;;;;;5072166;28;20441;-63
2021/05/21 00:10:07;;;;;;;0.80;0.30;;;23.20;37.80;;;;;;5071806;28;20467;-63
2021/05/21 00:12:33;;;;;;;1.50;0.40;;;23.20;37.70;;;;;;5072137;28;20388;-66
2021/05/21 00:15:00;;;;;;;0.80;0.30;;;23.20;37.70;;;;;;5072278;28;20441;-64
2021/05/21 00:17:26;;;;;;;0.40;0.20;;;23.10;37.80;;;;;;5072315;28;20395;-66
2021/05/21 00:19:52;;;;;;;0.30;0.20;;;23.10;37.70;;;;;;5072087;28;20867;-65
2021/05/21 00:22:19;;;;;;;0.50;0.30;;;23.10;38.30;;;;;;5071555;28;20429;-65
2021/05/21 00:24:45;;;;;;;0.60;0.30;;;23.10;37.70;;;;;;5072197;28;20425;-66
2021/05/21 00:27:11;;;;;;;0.90;0.30;;;23.10;37.70;;;;;;5071847;28;20399;-62
2021/05/21 00:29:37;;;;;;;1.05;0.30;;;23.10;37.70;;;;;;5072040;28;20398;-65
2021/05/21 00:32:03;;;;;;;0.40;0.20;;;23.10;37.70;;;;;;5071443;28;20403;-65
2021/05/21 00:34:29;;;;;;;0.68;0.30;;;23.10;37.70;;;;;;5071577;28;20415;-64
2021/05/21 00:36:55;;;;;;;0.45;0.22;;;23.10;37.70;;;;;;5071805;28;20412;-66
2021/05/21 00:39:21;;;;;;;0.45;0.20;;;23.10;37.60;;;;;;5071748;28;20426;-61
2021/05/21 00:41:47;;;;;;;0.60;0.30;;;23.10;37.70;;;;;;5071776;28;20379;-65
2021/05/21 00:44:13;;;;;;;0.60;0.22;;;23.10;37.70;;;;;;5071424;28;20414;-65
2021/05/21 00:46:39;;;;;;;0.80;0.30;;;23.10;37.70;;;;;;5071610;28;20462;-65
2021/05/21 00:49:05;;;;;;;0.40;0.20;;;23.00;37.70;;;;;;5071623;28;20471;-65
2021/05/21 00:51:32;;;;;;;0.85;0.20;;;23.00;37.70;;;;;;5071664;28;20451;-65
2021/05/21 00:53:59;;;;;;;0.67;0.30;;;23.00;37.70;;;;;;5071722;28;20444;-63
2021/05/21 00:56:26;;;;;;;0.52;0.22;;;23.00;37.70;;;;;;5071127;28;20384;-64
2021/05/21 00:58:52;;;;;;;0.28;0.20;;;23.00;37.70;;;;;;5071493;28;20380;-62
2021/05/21 01:01:18;;;;;;;0.50;0.30;;;23.00;37.60;;;;;;5071609;28;20433;-63
2021/05/21 01:03:44;;;;;;;0.70;0.30;;;23.00;37.60;;;;;;5071365;28;20489;-65
2021/05/21 01:06:13;;;;;;;0.40;0.28;;;23.00;37.60;;;;;;5053104;28;20406;-61
2021/05/21 01:08:39;;;;;;;0.70;0.30;;;23.00;37.70;;;;;;5071365;28;20424;-64
2021/05/21 01:11:07;;;;;;;0.70;0.30;;;23.00;37.60;;;;;;5053738;28;20779;-65
2021/05/21 01:13:34;;;;;;;0.45;0.30;;;22.90;37.60;;;;;;5053396;28;20422;-64
2021/05/21 01:16:00;;;;;;;0.55;0.22;;;22.90;37.60;;;;;;5071239;28;20388;-61
2021/05/21 01:18:26;;;;;;;0.80;0.20;;;23.00;37.60;;;;;;5070766;28;20390;-64
2021/05/21 01:20:51;;;;;;;0.55;0.30;;;22.90;37.60;;;;;;5071245;28;20388;-66
2021/05/21 01:23:17;;;;;;;0.40;0.20;;;22.90;37.60;;;;;;5071198;28;20379;-65
2021/05/21 01:25:43;;;;;;;0.40;0.20;;;22.90;37.60;;;;;;5071270;28;20388;-65
2021/05/21 01:28:11;;;;;;;0.50;0.30;;;22.90;37.60;;;;;;5070942;28;20489;-66
2021/05/21 01:30:37;;;;;;;0.80;0.30;;;23.00;37.50;;;;;;5071089;28;20392;-66
2021/05/21 01:33:08;;;;;;;0.60;0.22;;;23.00;37.50;;;;;;5071226;28;20406;-66
2021/05/21 01:35:34;;;;;;;0.30;0.20;;;23.00;37.50;;;;;;5071100;28;20737;-65
2021/05/21 01:38:00;;;;;;;0.73;0.30;;;22.90;37.50;;;;;;5071224;28;20388;-64
2021/05/21 01:40:27;;;;;;;0.30;0.20;;;22.90;37.50;;;;;;5052542;28;20431;-66
2021/05/21 01:42:54;;;;;;;0.50;0.20;;;22.90;37.50;;;;;;5071005;28;20387;-66
2021/05/21 01:45:19;;;;;;;0.40;0.20;;;22.90;37.50;;;;;;5072807;28;20380;-66
2021/05/21 01:47:48;;;;;;;0.30;0.20;;;23.00;37.40;;;;;;5056849;28;20414;-65
2021/05/21 01:50:15;;;;;;;0.32;0.20;;;23.00;37.50;;;;;;5074285;28;20384;-63
2021/05/21 01:52:43;;;;;;;0.50;0.20;;;23.00;37.40;;;;;;5074791;28;20402;-66
2021/05/21 01:55:08;;;;;;;0.50;0.20;;;22.90;37.40;;;;;;5074667;28;20392;-66
2021/05/21 01:57:36;;;;;;;0.68;0.30;;;22.90;37.40;;;;;;5074608;28;20855;-65
2021/05/21 02:00:04;;;;;;;0.45;0.20;;;22.90;37.50;;;;;;5074649;28;20410;-61
2021/05/21 02:02:30;;;;;;;0.50;0.20;;;22.90;37.40;;;;;;5073946;28;20390;-61
2021/05/21 02:04:55;;;;;;;0.50;0.20;;;22.90;37.50;;;;;;5074472;28;20491;-63
2021/05/21 02:07:21;;;;;;;0.65;0.20;;;22.90;37.40;;;;;;5074213;28;20419;-64
2021/05/21 02:09:47;;;;;;;0.20;0.10;;;22.90;37.40;;;;;;5074491;28;20383;-63
2021/05/21 02:12:13;;;;;;;0.45;0.20;;;22.90;37.40;;;;;;5074144;28;20453;-61
2021/05/21 02:14:38;;;;;;;0.60;0.30;;;22.90;37.40;;;;;;5074344;28;20441;-63
2021/05/21 02:17:04;;;;;;;0.45;0.20;;;22.90;37.40;;;;;;5074372;28;20400;-61
2021/05/21 02:19:30;;;;;;;0.30;0.30;;;22.90;37.40;;;;;;5074175;28;20458;-65
2021/05/21 02:21:56;;;;;;;0.30;0.15;;;22.90;37.40;;;;;;5074246;28;20418;-65
2021/05/21 02:24:22;;;;;;;0.45;0.25;;;22.90;37.40;;;;;;5073668;28;20387;-61
2021/05/21 02:26:47;;;;;;;0.50;0.20;;;22.80;37.40;;;;;;5074056;28;20386;-63
2021/05/21 02:29:13;;;;;;;0.40;0.20;;;22.90;37.40;;;;;;5074132;28;20395;-60
2021/05/21 02:31:38;;;;;;;0.30;0.20;;;22.90;37.40;;;;;;5073952;28;20433;-61
2021/05/21 02:34:04;;;;;;;0.52;0.20;;;22.90;37.30;;;;;;5074053;28;20396;-65
2021/05/21 02:36:30;;;;;;;0.30;0.20;;;22.90;37.40;;;;;;5073421;28;20725;-66
2021/05/21 02:38:55;;;;;;;0.30;0.20;;;22.80;37.30;;;;;;5073944;28;20756;-66
2021/05/21 02:41:21;;;;;;;0.40;0.20;;;22.80;37.30;;;;;;5073810;28;20391;-65
2021/05/21 02:43:47;;;;;;;0.22;0.10;;;22.80;37.30;;;;;;5073828;28;20379;-65
2021/05/21 02:46:13;;;;;;;0.37;0.23;;;22.80;37.20;;;;;;5073558;28;20395;-65
2021/05/21 02:48:38;;;;;;;0.47;0.20;;;22.80;37.20;;;;;;5073375;28;20415;-63
2021/05/21 02:51:04;;;;;;;0.50;0.23;;;22.80;37.20;;;;;;5073688;28;20518;-65
2021/05/21 02:53:30;;;;;;;0.30;0.20;;;22.80;37.10;;;;;;5073610;28;20411;-66
2021/05/21 02:55:56;;;;;;;0.47;0.30;;;22.80;37.10;;;;;;5073262;28;20387;-66
2021/05/21 02:58:21;;;;;;;0.22;0.13;;;22.80;37.10;;;;;;5073057;28;20395;-65
2021/05/21 03:00:47;;;;;;;0.40;0.20;;;22.80;37.00;;;;;;5073515;28;20395;-65
2021/05/21 03:03:13;;;;;;;0.95;0.25;;;22.80;37.10;;;;;;5073337;28;20756;-65
2021/05/21 03:05:39;;;;;;;0.40;0.20;;;22.80;37.10;;;;;;5055594;28;20467;-65
2021/05/21 03:08:04;;;;;;;0.40;0.20;;;22.80;37.20;;;;;;5073340;28;20493;-61
2021/05/21 03:10:30;;;;;;;1.38;0.30;;;22.80;36.90;;;;;;5072658;28;20442;-62
2021/05/21 03:12:56;;;;;;;0.70;0.30;;;22.70;37.30;;;;;;5073255;28;20388;-61
2021/05/21 03:15:22;;;;;;;1.30;0.28;;;22.70;37.40;;;;;;5073208;28;20395;-62
2021/05/21 03:17:47;;;;;;;0.60;0.20;;;22.80;37.60;;;;;;5073104;28;20400;-65
2021/05/21 03:20:14;;;;;;;1.40;0.20;;;22.80;37.40;;;;;;5072811;28;20374;-62
2021/05/21 03:22:41;;;;;;;1.40;0.30;;;22.80;37.60;;;;;;5072741;28;20399;-60
2021/05/21 03:25:07;;;;;;;1.27;0.20;;;22.90;38.10;;;;;;5072839;28;20459;-60
2021/05/21 03:27:33;;;;;;;1.80;0.30;;;22.90;38.50;;;;;;5072820;28;20476;-61
2021/05/21 03:30:00;;;;;;;1.10;0.20;;;23.00;38.40;;;;;;5072810;28;20867;-60
2021/05/21 03:32:27;;;;;;;2.17;0.30;;;23.00;39.40;;;;;;5054337;28;20383;-60
2021/05/21 03:34:53;;;;;;;2.88;0.40;;;23.00;39.50;;;;;;5072661;28;20756;-60
2021/05/21 03:37:19;;;;;;;13.43;0.50;;;23.00;39.10;;;;;;5072613;28;20792;-60
2021/05/21 03:39:45;;;;;;;2.30;0.30;;;23.10;38.30;;;;;;5072001;28;20464;-59
2021/05/21 03:42:11;;;;;;;2.80;0.30;;;23.10;39.10;;;;;;5072507;28;20427;-60
2021/05/21 03:44:37;;;;;;;2.30;0.30;;;23.10;39.00;;;;;;5071983;28;20433;-59
2021/05/21 03:47:03;;;;;;;1.90;0.22;;;23.10;39.00;;;;;;5072416;28;20443;-58
2021/05/21 03:49:29;;;;;;;2.40;0.30;;;23.10;39.40;;;;;;5072448;28;20399;-59
2021/05/21 03:51:55;;;;;;;0.38;0.20;;;23.10;39.40;;;;;;5072417;28;20380;-60
2021/05/21 03:54:22;;;;;;;1.65;0.30;;;23.10;38.40;;;;;;5071815;28;20475;-59
2021/05/21 03:56:48;;;;;;;1.92;0.20;;;23.10;38.40;;;;;;5072423;28;20387;-59
2021/05/21 03:59:14;;;;;;;3.42;0.40;;;23.00;38.10;;;;;;5072222;28;20403;-63
2021/05/21 04:01:40;;;;;;;1.38;0.22;;;23.00;38.20;;;;;;5072172;28;20392;-58
2021/05/21 04:04:05;;;;;;;5.37;0.30;;;23.00;38.10;;;;;;5072044;28;20422;-58
2021/05/21 04:06:32;;;;;;;5.72;0.40;;;22.90;38.50;;;;;;5071696;28;20382;-58
2021/05/21 04:08:59;;;;;;;4.97;0.40;;;22.90;38.00;;;;;;5071202;28;20466;-58
2021/05/21 04:11:25;;;;;;;3.58;0.40;;;22.90;38.70;;;;;;5071947;28;20380;-58
2021/05/21 04:13:50;;;;;;;3.23;0.40;;;22.80;38.30;;;;;;5072062;28;20947;-59
2021/05/21 04:16:16;;;;;;;4.35;0.30;;;22.80;38.30;;;;;;5071564;28;20383;-58
2021/05/21 04:18:42;;;;;;;4.17;0.40;;;22.80;38.30;;;;;;5071619;28;20438;-58
2021/05/21 04:21:07;;;;;;;4.20;0.55;;;22.90;38.40;;;;;;5071950;28;20718;-58
2021/05/21 04:23:37;;;;;;;2.43;0.30;;;22.90;38.10;;;;;;5071686;28;20388;-58
2021/05/21 04:26:03;;;;;;;5.35;0.40;;;22.80;37.90;;;;;;5071734;28;20521;-58
2021/05/21 04:28:28;;;;;;;5.63;0.40;;;22.80;38.00;;;;;;5071095;28;20499;-59
2021/05/21 04:30:54;;;;;;;2.80;0.28;;;22.80;38.50;;;;;;5070041;28;21025;-59
2021/05/21 04:33:20;;;;;;;2.57;0.30;;;22.90;37.80;;;;;;5070179;28;20388;-59
2021/05/21 04:35:45;;;;;;;2.75;0.45;;;22.90;37.60;;;;;;5071527;28;20384;-59
2021/05/21 04:38:12;;;;;;;2.50;0.30;;;22.90;37.50;;;;;;5071517;28;20876;-59
2021/05/21 04:40:37;;;;;;;2.85;0.35;;;22.80;37.30;;;;;;5070456;28;20419;-59
2021/05/21 04:43:03;;;;;;;3.95;0.40;;;22.80;37.30;;;;;;5071739;28;20481;-59
2021/05/21 04:45:29;;;;;;;2.27;0.40;;;22.80;37.20;;;;;;5053515;28;20411;-62
2021/05/21 04:47:54;;;;;;;1.60;0.40;;;22.80;37.20;;;;;;5071509;28;20402;-60
2021/05/21 04:50:21;;;;;;;3.90;0.50;;;22.80;37.50;;;;;;5071298;28;20750;-60
2021/05/21 04:52:48;;;;;;;3.08;0.30;;;22.80;37.40;;;;;;5071213;28;20485;-59
2021/05/21 04:55:14;;;;;;;3.65;0.70;;;22.80;37.20;;;;;;5069940;28;20395;-62
2021/05/21 04:57:39;;;;;;;5.33;0.80;;;22.80;37.30;;;;;;5071196;28;20903;-62
2021/05/21 05:00:06;;;;;;;4.50;0.60;;;22.80;37.70;;;;;;5071148;28;20396;-62
2021/05/21 05:02:32;;;;;;;5.22;0.70;;;22.70;37.80;;;;;;5070658;28;20384;-62
2021/05/21 05:04:58;;;;;;;4.10;0.47;;;22.70;37.90;;;;;;5070897;28;20568;-62
2021/05/21 05:07:23;;;;;;;3.88;0.40;;;22.70;37.80;;;;;;5070734;28;20407;-61
2021/05/21 05:09:49;;;;;;;5.27;1.10;;;22.70;37.50;;;;;;5069725;28;20748;-60
2021/05/21 05:12:15;;;;;;;5.03;0.50;;;22.70;37.70;;;;;;5071162;28;20390;-60
2021/05/21 05:14:40;;;;;;;4.10;0.50;;;22.70;37.60;;;;;;5070607;28;20392;-61
2021/05/21 05:17:06;;;;;;;1.90;0.43;;;22.70;37.60;;;;;;5071209;28;20399;-60
2021/05/21 05:19:32;;;;;;;1.52;0.60;;;22.70;37.60;;;;;;5073362;28;20945;-59
2021/05/21 05:21:58;;;;;;;2.37;0.30;;;22.70;37.50;;;;;;5075221;28;20936;-59
2021/05/21 05:24:24;;;;;;;1.27;0.30;;;22.70;37.50;;;;;;5074714;28;20387;-61
2021/05/21 05:26:51;;;;;;;1.13;0.40;;;22.80;37.60;;;;;;5075151;28;20390;-62
2021/05/21 05:29:16;;;;;;;3.85;0.70;;;22.80;37.70;;;;;;5075153;28;20838;-62
2021/05/21 05:31:46;;;;;;;1.60;0.40;;;22.80;37.50;;;;;;5075145;28;20407;-63
2021/05/21 05:34:12;;;;;;;1.80;0.40;;;22.80;38.10;;;;;;5075031;28;20470;-59
2021/05/21 05:36:38;;;;;;;2.20;0.40;;;22.80;37.40;;;;;;5074511;28;20388;-61
2021/05/21 05:39:05;;;;;;;1.40;0.30;;;22.90;37.50;;;;;;5074979;28;20475;-64
2021/05/21 05:41:31;;;;;;;5.47;0.50;;;22.90;37.40;;;;;;5074800;28;20471;-63
2021/05/21 05:43:57;;;;;;;3.03;0.40;;;22.90;38.40;;;;;;5074967;28;20392;-62
2021/05/21 05:46:22;;;;;;;1.40;0.50;;;23.00;37.80;;;;;;5074417;28;20413;-59
2021/05/21 05:48:49;;;;;;;1.93;0.33;;;23.00;37.60;;;;;;5074372;28;20490;-60
2021/05/21 05:51:14;;;;;;;2.45;0.30;;;23.00;37.90;;;;;;5074622;28;20384;-58
2021/05/21 05:53:41;;;;;;;1.83;0.40;;;23.00;37.80;;;;;;5074646;28;20445;-58
2021/05/21 05:56:07;;;;;;;1.35;0.40;;;23.00;37.50;;;;;;5074602;28;20747;-58
2021/05/21 05:58:32;;;;;;;2.63;0.47;;;23.10;37.70;;;;;;5056082;28;20391;-58
2021/05/21 06:00:59;;;;;;;2.77;0.40;;;23.10;37.70;;;;;;5074503;28;20384;-58
2021/05/21 06:03:27;;;;;;;2.00;0.43;;;23.10;37.50;;;;;;5074299;28;20408;-58
2021/05/21 06:05:52;;;;;;;2.08;0.80;;;23.10;37.60;;;;;;5074473;28;20467;-58
2021/05/21 06:08:18;;;;;;;1.07;0.30;;;23.10;37.50;;;;;;5074181;28;20519;-58
2021/05/21 06:10:44;;;;;;;2.83;0.30;;;23.10;37.50;;;;;;5073889;28;20384;-58
2021/05/21 06:13:10;;;;;;;2.47;0.70;;;23.10;37.50;;;;;;5056453;28;20392;-58
2021/05/21 06:15:38;;;;;;;2.95;0.50;;;23.10;38.00;;;;;;5074150;28;20445;-58
2021/05/21 06:18:04;;;;;;;2.00;0.50;;;23.10;37.40;;;;;;5074440;28;20415;-59
2021/05/21 06:20:31;;;;;;;2.47;0.70;;;23.10;38.00;;;;;;5073615;28;20384;-62
2021/05/21 06:22:57;;;;;;;1.88;0.40;;;23.10;37.80;;;;;;5074177;28;20399;-59
2021/05/21 06:25:28;;;;;;;3.50;0.60;;;23.10;37.80;;;;;;5073738;28;20379;-59
2021/05/21 06:27:54;;;;;;;4.68;0.60;;;23.20;37.70;;;;;;5074077;28;20434;-59
2021/05/21 06:30:20;;;;;;;3.25;0.57;;;23.20;37.70;;;;;;5073305;28;20864;-59
2021/05/21 06:32:45;;;;;;;2.40;0.50;;;23.20;37.60;;;;;;5055599;28;20396;-59
2021/05/21 06:35:12;;;;;;;5.50;0.50;;;23.20;37.30;;;;;;5055974;28;20956;-59
2021/05/21 06:37:38;;;;;;;4.10;0.40;;;23.20;37.40;;;;;;5073880;28;20941;-60
2021/05/21 06:40:06;;;;;;;3.60;0.47;;;23.20;37.50;;;;;;5073784;28;20400;-59
2021/05/21 06:42:32;;;;;;;1.25;0.35;;;23.20;37.50;;;;;;5073237;28;20395;-59
2021/05/21 06:44:58;;;;;;;1.80;0.30;;;23.20;37.40;;;;;;5073807;28;20388;-59
2021/05/21 06:47:24;;;;;;;1.60;0.38;;;23.20;37.40;;;;;;5073627;28;20437;-59
2021/05/21 06:49:49;;;;;;;1.50;0.30;;;23.20;37.30;;;;;;5073680;28;20387;-59
2021/05/21 06:52:15;;;;;;;1.60;0.30;;;23.20;37.30;;;;;;5073596;28;20379;-59
2021/05/21 06:54:44;;;;;;;1.20;0.30;;;23.20;37.30;;;;;;5073135;28;20740;-59
2021/05/21 06:57:09;;;;;;;1.80;0.40;;;23.20;37.30;;;;;;5073578;28;20394;-59
2021/05/21 06:59:35;;;;;;;1.38;0.50;;;23.30;37.20;;;;;;5073485;28;20388;-59
2021/05/21 07:02:02;;;;;;;1.38;0.30;;;23.30;37.20;;;;;;5073408;28;20403;-60
2021/05/21 07:04:28;;;;;;;1.25;0.25;;;23.30;37.20;;;;;;5072984;28;20488;-59
2021/05/21 07:06:53;;;;;;;1.60;0.30;;;23.30;37.20;;;;;;5055102;28;20812;-58
2021/05/21 07:09:19;;;;;;;1.43;0.37;;;23.30;37.20;;;;;;5055364;28;20392;-59
2021/05/21 07:11:44;;;;;;;1.63;0.30;;;23.30;37.20;;;;;;5073286;28;20392;-59
2021/05/21 07:14:10;;;;;;;0.68;0.30;;;23.20;37.20;;;;;;5073223;28;20384;-59
2021/05/21 07:16:36;;;;;;;1.83;0.30;;;23.20;37.20;;;;;;5072683;28;20410;-59
2021/05/21 07:19:03;;;;;;;1.17;0.30;;;23.20;37.20;;;;;;5073152;28;20388;-59
2021/05/21 07:21:28;;;;;;;1.30;0.30;;;23.20;37.20;;;;;;5073027;28;20879;-59
2021/05/21 07:23:54;;;;;;;1.40;0.30;;;23.20;37.20;;;;;;5073067;28;20472;-59
2021/05/21 07:26:20;;;;;;;1.10;0.30;;;23.20;37.20;;;;;;5072885;28;20422;-59
2021/05/21 07:28:46;;;;;;;0.60;0.30;;;23.20;37.20;;;;;;5072416;28;20434;-59
2021/05/21 07:31:11;;;;;;;1.15;0.25;;;23.30;37.40;;;;;;5072909;28;20855;-59
2021/05/21 07:33:37;;;;;;;1.30;0.50;;;23.30;37.20;;;;;;5072720;28;20796;-61
2021/05/21 07:36:03;;;;;;;0.65;0.30;;;23.30;37.20;;;;;;5072828;28;20486;-59
2021/05/21 07:38:30;;;;;;;1.15;0.30;;;23.30;37.80;;;;;;5054483;28;20434;-59
2021/05/21 07:40:57;;;;;;;1.08;0.35;;;23.30;37.20;;;;;;5071956;28;20445;-59
2021/05/21 07:43:23;;;;;;;1.63;0.30;;;23.30;37.10;;;;;;5071153;28;20752;-59
2021/05/21 07:45:48;;;;;;;0.57;0.30;;;23.30;37.10;;;;;;5072412;28;20386;-59
2021/05/21 07:48:14;;;;;;;0.57;0.30;;;23.30;37.10;;;;;;5072447;28;20408;-59
2021/05/21 07:50:40;;;;;;;0.60;0.22;;;23.30;37.10;;;;;;5071997;28;20416;-59
2021/05/21 07:53:06;;;;;;;1.53;0.30;;;23.30;37.10;;;;;;5072519;28;20430;-58
2021/05/21 07:55:32;;;;;;;0.77;0.25;;;23.30;37.10;;;;;;5072184;28;20391;-59
2021/05/21 07:57:58;;;;;;;0.70;0.40;;;23.30;37.10;;;;;;5072356;28;20440;-59
2021/05/21 08:00:23;;;;;;;1.27;0.30;;;23.30;37.10;;;;;;5072351;28;20919;-60
2021/05/21 08:02:59;;;;;;;0.70;0.30;;;23.30;37.10;;;;;;5109556;27;20365;-61
2021/05/21 08:05:24;;;;;;;0.73;0.30;;;23.30;37.00;;;;;;5109316;28;20488;-64
2021/05/21 08:07:50;;;;;;;0.85;0.30;;;23.30;37.00;;;;;;5109217;28;20399;-61
2021/05/21 08:10:16;;;;;;;0.73;0.30;;;23.30;37.00;;;;;;5109294;28;20751;-63
2021/05/21 08:12:42;;;;;;;0.50;0.40;;;23.30;37.00;;;;;;5107574;28;20393;-63
2021/05/21 08:15:08;;;;;;;0.90;0.30;;;23.30;37.00;;;;;;5108011;28;20386;-64
2021/05/21 08:17:35;;;;;;;1.20;0.30;;;23.40;37.00;;;;;;5108738;28;20405;-62
2021/05/21 08:20:02;;;;;;;0.90;0.30;;;23.40;36.90;;;;;;5109141;28;20426;-63
2021/05/21 08:22:28;;;;;;;1.17;0.30;;;23.40;36.90;;;;;;5108949;28;20507;-61
2021/05/21 08:24:54;;;;;;;0.75;0.30;;;23.40;36.90;;;;;;5107252;28;20455;-63
2021/05/21 08:27:20;;;;;;;0.80;0.32;;;23.40;36.90;;;;;;5108674;28;20381;-62
2021/05/21 08:29:45;;;;;;;1.10;0.30;;;23.40;36.90;;;;;;5108790;28;20389;-61
2021/05/21 08:32:11;;;;;;;0.80;0.30;;;23.40;36.90;;;;;;5108907;28;20479;-62
2021/05/21 08:34:36;;;;;;;0.73;0.23;;;23.40;36.90;;;;;;5108304;28;20411;-62
2021/05/21 08:37:02;;;;;;;0.80;0.30;;;23.40;36.90;;;;;;5108826;28;20388;-62
2021/05/21 08:39:28;;;;;;;0.60;0.30;;;23.40;36.90;;;;;;5107411;28;20481;-61
2021/05/21 08:41:55;;;;;;;0.90;0.25;;;23.40;36.90;;;;;;5108689;28;20491;-60
2021/05/21 08:44:21;;;;;;;0.70;0.20;;;23.40;37.50;;;;;;5107351;28;20386;-61
2021/05/21 08:46:47;;;;;;;0.98;0.20;;;23.40;36.90;;;;;;5108178;28;20383;-61
2021/05/21 08:49:13;;;;;;;0.75;0.30;;;23.40;36.80;;;;;;5108582;28;20377;-62
2021/05/21 08:51:39;;;;;;;0.50;0.30;;;23.40;36.90;;;;;;5108551;28;20389;-60
2021/05/21 08:54:07;;;;;;;0.75;0.35;;;23.50;36.80;;;;;;5108477;28;20388;-61
2021/05/21 08:56:34;;;;;;;0.55;0.20;;;23.50;36.80;;;;;;5108080;28;20388;-63
2021/05/21 08:58:59;;;;;;;0.45;0.20;;;23.50;36.80;;;;;;5108288;28;20874;-61
2021/05/21 09:01:27;;;;;;;0.60;0.30;;;23.50;36.80;;;;;;5108132;28;20425;-63
2021/05/21 09:04:01;;;;;;;0.40;0.20;;;23.50;36.70;;;;;;5108337;28;20409;-61
2021/05/21 09:06:28;;;;;;;0.30;0.20;;;23.50;36.70;;;;;;5108231;28;20381;-61
2021/05/21 09:08:59;;;;;;;1.02;0.22;;;23.50;36.70;;;;;;5107688;28;20733;-61
2021/05/21 09:11:40;;;;;;;0.60;0.30;;;23.60;36.70;;;;;;5107758;28;20413;-61
2021/05/21 09:14:16;;;;;;;0.47;0.20;;;23.50;36.70;;;;;;5095329;28;20384;-61
2021/05/21 09:16:43;;;;;;;0.43;0.20;;;23.60;36.70;;;;;;5094116;28;20493;-61
2021/05/21 09:19:20;;;;;;;0.80;0.20;;;23.60;36.70;;;;;;5094356;28;20417;-61
2021/05/21 09:22:02;;;;;;;0.90;0.30;;;23.60;36.70;;;;;;5094440;28;20417;-61
2021/05/21 09:24:45;;;;;;;0.32;0.20;;;23.60;36.70;;;;;;5094252;28;20390;-61
2021/05/21 09:27:12;;;;;;;0.50;0.30;;;23.60;36.70;;;;;;5094026;28;20378;-60
2021/05/21 09:29:51;;;;;;;0.30;0.20;;;23.60;36.70;;;;;;5094303;28;20397;-60
2021/05/21 09:32:29;;;;;;;0.73;0.32;;;23.60;36.70;;;;;;5092905;28;20896;-61
2021/05/21 09:35:00;;;;;;;0.70;0.30;;;23.50;36.70;;;;;;5093764;28;20398;-60
2021/05/21 09:37:27;;;;;;;0.82;0.30;;;23.60;36.70;;;;;;5094014;28;20381;-61
2021/05/21 09:40:07;;;;;;;0.57;0.20;;;23.60;36.70;;;;;;5094159;28;20386;-61
2021/05/21 09:42:58;;;;;;;0.60;0.20;;;23.60;36.60;;;;;;5094032;28;20483;-60
2021/05/21 09:45:25;;;;;;;0.45;0.20;;;23.60;36.60;;;;;;5093775;28;20385;-61
2021/05/21 09:48:03;;;;;;;0.70;0.30;;;23.60;36.60;;;;;;5093992;28;20400;-60
2021/05/21 09:50:31;;;;;;;0.57;0.20;;;23.60;36.60;;;;;;5093772;28;20878;-61
2021/05/21 09:53:13;;;;;;;0.80;0.20;;;23.60;36.60;;;;;;5093309;28;20390;-60
2021/05/21 09:56:00;;;;;;;0.47;0.20;;;23.60;36.60;;;;;;5093742;28;21069;-61
2021/05/21 09:58:33;;;;;;;0.50;0.20;;;23.60;36.60;;;;;;5093658;28;20874;-60
2021/05/21 10:01:23;;;;;;;0.22;0.17;;;23.60;36.60;;;;;;5091692;28;20770;-61
2021/05/21 10:03:58;;;;;;;0.55;0.28;;;23.60;36.60;;;;;;5093719;28;20428;-61
2021/05/21 10:06:26;;;;;;;0.57;0.25;;;23.60;36.60;;;;;;5093555;28;20390;-60
2021/05/21 10:08:58;;;;;;;0.57;0.30;;;23.60;36.60;;;;;;5093158;28;20885;-61
2021/05/21 10:11:25;;;;;;;0.43;0.25;;;23.60;36.60;;;;;;5093425;28;20398;-60
2021/05/21 10:13:51;;;;;;;0.40;0.20;;;23.60;36.60;;;;;;5092163;28;20740;-60
2021/05/21 10:16:19;;;;;;;0.50;0.20;;;23.60;36.60;;;;;;5093612;28;20401;-62
2021/05/21 10:18:53;;;;;;;0.52;0.20;;;23.60;36.50;;;;;;5092806;28;20877;-61
2021/05/21 10:21:20;;;;;;;0.50;0.20;;;23.60;36.50;;;;;;5093180;28;20417;-60
2021/05/21 10:23:50;;;;;;;0.70;0.20;;;23.60;36.50;;;;;;5092963;28;20447;-63
2021/05/21 10:26:26;;;;;;;0.35;0.20;;;23.60;36.50;;;;;;5092309;28;20451;-60
2021/05/21 10:28:56;;;;;;;0.73;0.20;;;23.60;36.50;;;;;;5092453;28;20394;-61
2021/05/21 10:31:23;;;;;;;0.70;0.30;;;23.60;36.50;;;;;;5092605;28;20444;-61
2021/05/21 10:33:49;;;;;;;0.65;0.30;;;23.60;36.50;;;;;;5093007;28;20467;-60
2021/05/21 10:36:23;;;;;;;0.55;0.20;;;23.60;36.50;;;;;;5092731;28;20382;-61
2021/05/21 10:39:07;;;;;;;3.88;0.45;;;23.60;36.50;;;;;;5092280;28;20412;-61
2021/05/21 10:41:48;;;;;;;1.80;0.40;;;23.60;36.30;;;;;;5092607;28;20421;-61
2021/05/21 10:44:18;;;;;;;1.45;0.20;;;23.50;35.70;;;;;;5092764;28;20453;-62
2021/05/21 10:46:46;;;;;;;1.30;0.50;;;23.50;35.20;;;;;;5092454;28;20477;-62
2021/05/21 10:49:25;;;;;;;1.73;0.30;;;23.50;34.80;;;;;;5092755;28;20392;-65
2021/05/21 10:51:56;;;;;;;1.40;0.20;;;23.50;35.10;;;;;;5092510;28;20939;-64
2021/05/21 10:54:34;;;;;;;1.27;0.30;;;23.50;34.80;;;;;;5092621;28;20433;-65
2021/05/21 10:57:19;;;;;;;2.80;0.47;;;23.50;35.00;;;;;;5092198;28;20431;-64
2021/05/21 10:59:51;;;;;;;4.45;0.75;;;23.50;35.20;;;;;;5092585;28;20477;-63
2021/05/21 11:02:52;;;;;;;2.55;0.50;;;23.50;35.30;;;;;;5091192;28;20421;-63
2021/05/21 11:05:24;;;;;;;3.15;0.40;;;23.60;35.30;;;;;;5086241;28;20398;-63
2021/05/21 11:07:55;;;;;;;5.72;1.63;;;23.50;35.40;;;;;;5092441;28;20420;-65
2021/05/21 11:10:33;;;;;;;6.55;1.50;;;23.90;35.80;;;;;;5092263;28;20411;-64
2021/05/21 11:13:04;;;;;;;4.35;1.10;;;23.90;35.40;;;;;;5091888;28;20460;-64
2021/05/21 11:15:33;;;;;;;3.90;1.10;;;23.80;35.40;;;;;;5092279;28;20906;-64
2021/05/21 11:18:17;;;;;;;4.10;0.70;;;23.70;36.30;;;;;;5092172;28;20390;-64
2021/05/21 11:21:07;;;;;;;3.90;1.10;;;23.70;35.40;;;;;;5090604;28;20417;-64
2021/05/21 11:23:39;;;;;;;2.43;0.70;;;23.70;35.40;;;;;;5092141;28;20394;-64
2021/05/21 11:26:13;;;;;;;3.22;0.90;;;23.60;36.10;;;;;;5091987;28;20380;-64
2021/05/21 11:28:45;;;;;;;2.92;1.20;;;23.70;35.40;;;;;;5091853;28;20930;-64
2021/05/21 11:31:19;;;;;;;2.83;0.90;;;23.80;34.90;;;;;;5091786;28;20394;-63
2021/05/21 11:33:47;;;;;;;3.17;0.70;;;23.90;34.70;;;;;;5091956;28;20738;-64
2021/05/21 11:36:14;;;;;;;2.38;0.52;;;23.90;34.40;;;;;;5091613;28;20465;-63
2021/05/21 11:38:40;;;;;;;2.72;0.63;;;24.00;33.60;;;;;;5091681;28;20377;-64
2021/05/21 11:41:07;;;;;;;3.65;0.65;;;24.00;33.70;;;;;;5091063;28;20746;-64
2021/05/21 11:43:41;;;;;;;3.00;0.80;;;24.10;33.70;;;;;;5091192;28;20393;-64
2021/05/21 11:46:19;;;;;;;2.70;0.50;;;24.40;34.10;;;;;;5091483;28;20374;-63
2021/05/21 11:48:47;;;;;;;1.43;0.50;;;24.50;33.70;;;;;;5091387;28;20947;-64
2021/05/21 11:51:16;;;;;;;1.98;0.85;;;24.60;33.50;;;;;;5091518;28;20385;-64
2021/05/21 11:53:49;;;;;;;1.42;0.40;;;24.70;33.40;;;;;;5091677;28;20382;-64
2021/05/21 11:56:31;;;;;;;3.30;0.60;;;24.70;33.30;;;;;;5091505;28;20919;-64
2021/05/21 11:59:08;;;;;;;1.10;0.40;;;24.80;33.30;;;;;;5089910;28;20374;-64
2021/05/21 12:01:35;;;;;;;2.00;0.50;;;24.80;33.20;;;;;;5091327;28;20413;-64
2021/05/21 12:04:05;;;;;;;3.33;0.40;;;24.90;33.30;;;;;;5091509;28;20472;-64
2021/05/21 12:06:31;;;;;;;1.30;0.40;;;25.00;33.30;;;;;;5091131;28;20370;-65
2021/05/21 12:08:57;;;;;;;2.97;0.70;;;25.00;33.20;;;;;;5090755;28;20397;-65
2021/05/21 12:11:26;;;;;;;3.25;0.60;;;25.10;33.60;;;;;;5091237;28;20469;-63
2021/05/21 12:13:58;;;;;;;3.67;0.40;;;25.30;33.60;;;;;;5091599;28;20390;-63
2021/05/21 12:16:24;;;;;;;2.65;0.57;;;25.30;33.70;;;;;;5091434;28;20398;-64
2021/05/21 12:18:50;;;;;;;2.08;0.40;;;25.20;34.30;;;;;;5090883;28;20382;-61
2021/05/21 12:21:25;;;;;;;4.30;0.70;;;25.30;34.00;;;;;;5084570;28;20470;-64
2021/05/21 12:23:53;;;;;;;3.58;0.43;;;25.30;34.00;;;;;;5074238;28;20552;-64
2021/05/21 12:26:21;;;;;;;1.92;0.50;;;25.30;33.80;;;;;;5070917;28;20392;-61
2021/05/21 12:28:48;;;;;;;1.70;0.40;;;25.40;33.40;;;;;;5071746;28;20421;-63
2021/05/21 12:31:14;;;;;;;1.13;0.40;;;25.40;33.10;;;;;;5090656;28;20503;-65
2021/05/21 12:33:41;;;;;;;2.90;0.45;;;25.40;32.70;;;;;;5089818;28;20460;-65
2021/05/21 12:36:14;;;;;;;6.25;0.70;;;25.40;33.30;;;;;;5091108;28;20540;-64
2021/05/21 12:38:57;;;;;;;4.38;0.55;;;25.40;33.20;;;;;;5091298;28;20457;-65
2021/05/21 12:41:32;;;;;;;3.60;0.40;;;25.50;33.40;;;;;;5089683;28;21007;-63
2021/05/21 12:44:10;;;;;;;1.77;0.38;;;25.40;33.00;;;;;;5091270;28;20915;-63
2021/05/21 12:47:03;;;;;;;2.80;0.38;;;25.40;32.80;;;;;;5091071;28;20420;-64
2021/05/21 12:49:36;;;;;;;3.10;0.50;;;25.40;32.90;;;;;;5085792;28;20475;-64
2021/05/21 12:52:04;;;;;;;7.15;0.70;;;25.40;33.10;;;;;;5094891;28;20742;-64